createdAt,value
2018-09-12T00:00:10.882Z,100643.16
2018-09-12T00:02:38.546Z,100639.20
2018-09-12T00:05:06.259Z,100639.21
2018-09-12T00:07:33.950Z,100637.69
2018-09-12T00:10:01.642Z,100634.64
2018-09-12T00:12:29.354Z,100638.92
2018-09-12T00:14:57.041Z,100635.97
2018-09-12T00:17:24.711Z,100631.19
2018-09-12T00:19:52.412Z,100636.73
2018-09-12T00:22:20.130Z,100633.34
2018-09-12T00:24:47.890Z,100632.11
2018-09-12T00:27:15.760Z,100633.14
2018-09-12T00:29:43.419Z,100628.27
2018-09-12T00:32:11.155Z,100630.11
2018-09-12T00:34:39.230Z,100628.78
2018-09-12T00:37:07.007Z,100627.52
2018-09-12T00:39:35.167Z,100626.41
2018-09-12T00:42:02.951Z,100624.66
2018-09-12T00:44:30.648Z,100625.50
2018-09-12T00:46:58.333Z,100626.20
2018-09-12T00:49:26.005Z,100624.87
2018-09-12T00:51:53.710Z,100625.08
2018-09-12T00:54:21.381Z,100627.64
2018-09-12T00:56:49.066Z,100626.02
2018-09-12T00:59:16.739Z,100626.92
2018-09-12T01:01:47.331Z,100625.67
2018-09-12T01:04:15.035Z,100619.56
2018-09-12T01:06:42.720Z,100614.68
2018-09-12T01:09:10.402Z,100610.70
2018-09-12T01:11:38.114Z,100609.98
2018-09-12T01:14:06.376Z,100607.44
2018-09-12T01:16:34.815Z,100601.80
2018-09-12T01:19:03.089Z,100598.77
2018-09-12T01:21:30.774Z,100585.08
2018-09-12T01:24:08.106Z,100584.98
2018-09-12T01:26:35.932Z,100581.83
2018-09-12T01:29:03.652Z,100580.41
2018-09-12T01:31:31.367Z,100584.90
2018-09-12T01:33:59.059Z,100584.39
2018-09-12T01:36:26.783Z,100584.47
2018-09-12T01:38:54.483Z,100579.47
2018-09-12T01:41:25.626Z,100580.80
2018-09-12T01:43:53.322Z,100574.80
2018-09-12T01:46:21.115Z,100572.32
2018-09-12T01:48:48.935Z,100568.34
2018-09-12T01:51:16.654Z,100565.17
2018-09-12T01:53:44.363Z,100563.36
2018-09-12T01:56:12.313Z,100563.36
2018-09-12T01:58:40.007Z,100565.79
2018-09-12T02:01:07.810Z,100564.05
2018-09-12T02:03:35.871Z,100566.09
2018-09-12T02:06:03.591Z,100570.96
2018-09-12T02:08:31.296Z,100557.11
2018-09-12T02:10:59.023Z,100560.64
2018-09-12T02:13:26.723Z,100556.67
2018-09-12T02:15:54.531Z,100556.76
2018-09-12T02:18:22.272Z,100556.25
2018-09-12T02:20:49.994Z,100552.87
2018-09-12T02:23:17.714Z,100553.66
2018-09-12T02:25:45.470Z,100548.48
2018-09-12T02:28:13.182Z,100551.72
2018-09-12T02:30:40.897Z,100554.78
2018-09-12T02:33:08.637Z,100550.58
2018-09-12T02:35:41.227Z,100548.75
2018-09-12T02:38:08.942Z,100552.19
2018-09-12T02:40:36.988Z,100551.58
2018-09-12T02:43:04.759Z,100544.95
2018-09-12T02:45:32.472Z,100546.58
2018-09-12T02:48:00.170Z,100545.16
2018-09-12T02:50:27.886Z,100542.52
2018-09-12T02:52:55.582Z,100547.45
2018-09-12T02:55:23.276Z,100543.61
2018-09-12T02:57:50.979Z,100547.14
2018-09-12T03:00:18.699Z,100543.58
2018-09-12T03:05:27.631Z,100543.05
2018-09-12T03:07:55.453Z,100538.77
2018-09-12T03:10:23.220Z,100537.31
2018-09-12T03:12:50.932Z,100534.56
2018-09-12T03:15:18.646Z,100535.35
2018-09-12T03:17:46.343Z,100533.55
2018-09-12T03:20:14.053Z,100528.77
2018-09-12T03:22:41.769Z,100535.28
2018-09-12T03:25:09.482Z,100532.84
2018-09-12T03:27:37.208Z,100530.47
2018-09-12T03:30:05.348Z,100533.45
2018-09-12T03:32:33.044Z,100529.92
2018-09-12T03:35:00.779Z,100530.84
2018-09-12T03:37:28.534Z,100531.15
2018-09-12T03:39:56.369Z,100528.33
2018-09-12T03:42:24.086Z,100539.12
2018-09-12T03:44:51.786Z,100534.03
2018-09-12T03:47:19.459Z,100526.70
2018-09-12T03:49:47.175Z,100533.39
2018-09-12T03:52:14.867Z,100527.89
2018-09-12T03:54:42.711Z,100527.59
2018-09-12T03:57:10.400Z,100526.70
2018-09-12T03:59:38.083Z,100528.27
2018-09-12T04:02:05.834Z,100533.86
2018-09-12T04:04:33.512Z,100528.20
2018-09-12T04:07:01.306Z,100528.36
2018-09-12T04:09:29.005Z,100523.92
2018-09-12T04:11:56.767Z,100518.77
2018-09-12T04:14:24.486Z,100523.05
2018-09-12T04:16:52.246Z,100526.70
2018-09-12T04:19:19.967Z,100519.83
2018-09-12T04:21:47.727Z,100518.56
2018-09-12T04:24:15.642Z,100520.59
2018-09-12T04:26:43.264Z,100510.46
2018-09-12T04:29:10.948Z,100508.32
2018-09-12T04:31:38.647Z,100510.53
2018-09-12T04:34:06.384Z,100507.58
2018-09-12T04:36:34.083Z,100502.31
2018-09-12T04:39:01.982Z,100503.06
2018-09-12T04:41:33.720Z,100499.30
2018-09-12T04:44:01.415Z,100506.66
2018-09-12T04:46:29.159Z,100503.57
2018-09-12T04:48:56.871Z,100503.64
2018-09-12T04:51:24.579Z,100507.70
2018-09-12T04:53:52.294Z,100511.57
2018-09-12T04:56:19.996Z,100514.06
2018-09-12T04:58:47.715Z,100506.23
2018-09-12T05:01:15.511Z,100515.55
2018-09-12T05:03:43.191Z,100514.99
2018-09-12T05:06:10.895Z,100519.66
2018-09-12T05:08:38.931Z,100517.64
2018-09-12T05:11:06.635Z,100516.97
2018-09-12T05:13:34.397Z,100522.45
2018-09-12T05:16:02.260Z,100521.70
2018-09-12T05:18:29.868Z,100523.39
2018-09-12T05:20:57.576Z,100530.64
2018-09-12T05:23:25.594Z,100528.56
2018-09-12T05:25:53.320Z,100533.09
2018-09-12T05:28:21.068Z,100533.80
2018-09-12T05:30:48.905Z,100531.16
2018-09-12T05:33:16.591Z,100536.13
2018-09-12T05:35:44.289Z,100536.63
2018-09-12T05:38:12.388Z,100536.74
2018-09-12T05:40:40.107Z,100533.34
2018-09-12T05:43:07.851Z,100532.92
2018-09-12T05:45:35.547Z,100536.80
2018-09-12T05:48:03.291Z,100531.66
2018-09-12T05:50:30.990Z,100536.14
2018-09-12T05:52:58.675Z,100531.76
2018-09-12T05:55:26.429Z,100530.66
2018-09-12T05:57:54.191Z,100536.03
2018-09-12T06:00:22.566Z,100537.52
2018-09-12T06:02:54.075Z,100534.86
2018-09-12T06:05:21.815Z,100533.84
2018-09-12T06:07:49.530Z,100530.23
2018-09-12T06:10:17.271Z,100533.84
2018-09-12T06:12:45.099Z,100534.55
2018-09-12T06:15:13.003Z,100527.92
2018-09-12T06:17:40.675Z,100531.89
2018-09-12T06:20:08.376Z,100527.52
2018-09-12T06:22:36.198Z,100528.77
2018-09-12T06:25:03.996Z,100525.63
2018-09-12T06:27:31.835Z,100525.41
2018-09-12T06:29:59.626Z,100524.05
2018-09-12T06:32:27.378Z,100534.54
2018-09-12T06:34:55.235Z,100536.13
2018-09-12T06:37:22.991Z,100537.17
2018-09-12T06:39:50.712Z,100540.70
2018-09-12T06:42:18.427Z,100540.04
2018-09-12T06:44:46.160Z,100541.31
2018-09-12T06:47:13.842Z,100535.94
2018-09-12T06:49:45.994Z,100525.37
2018-09-12T06:52:14.433Z,100527.61
2018-09-12T06:54:42.354Z,100525.27
2018-09-12T06:57:10.046Z,100523.34
2018-09-12T06:59:37.759Z,100525.37
2018-09-12T07:02:05.817Z,100526.25
2018-09-12T07:04:33.531Z,100527.16
2018-09-12T07:07:01.471Z,100528.80
2018-09-12T07:09:29.216Z,100525.85
2018-09-12T07:11:56.963Z,100522.47
2018-09-12T07:14:25.192Z,100519.30
2018-09-12T07:16:52.879Z,100518.89
2018-09-12T07:19:20.627Z,100517.64
2018-09-12T07:21:48.332Z,100522.64
2018-09-12T07:24:16.038Z,100528.95
2018-09-12T07:26:43.694Z,100526.73
2018-09-12T07:29:11.409Z,100525.36
2018-09-12T07:31:39.482Z,100525.81
2018-09-12T07:34:07.583Z,100527.86
2018-09-12T07:36:35.304Z,100523.50
2018-09-12T07:39:05.359Z,100516.07
2018-09-12T07:41:33.121Z,100521.59
2018-09-12T07:44:01.360Z,100531.44
2018-09-12T07:46:29.093Z,100518.19
2018-09-12T07:48:56.845Z,100519.46
2018-09-12T07:51:24.531Z,100525.95
2018-09-12T07:53:52.318Z,100514.77
2018-09-12T07:56:20.176Z,100521.38
2018-09-12T07:58:48.179Z,100514.31
2018-09-12T08:01:15.875Z,100517.78
2018-09-12T08:03:43.663Z,100524.52
2018-09-12T08:06:11.363Z,100525.59
2018-09-12T08:08:39.343Z,100528.98
2018-09-12T08:11:07.062Z,100527.87
2018-09-12T08:13:34.792Z,100529.56
2018-09-12T08:16:02.504Z,100525.89
2018-09-12T08:18:30.227Z,100526.38
2018-09-12T08:20:58.052Z,100530.67
2018-09-12T08:23:25.767Z,100531.48
2018-09-12T08:25:53.483Z,100526.83
2018-09-12T08:28:21.179Z,100529.69
2018-09-12T08:30:48.955Z,100521.49
2018-09-12T08:33:16.672Z,100520.50
2018-09-12T08:35:44.535Z,100527.41
2018-09-12T08:38:12.254Z,100532.45
2018-09-12T08:40:40.428Z,100524.39
2018-09-12T08:43:08.159Z,100529.27
2018-09-12T08:45:39.323Z,100528.38
2018-09-12T08:48:07.027Z,100526.67
2018-09-12T08:50:35.423Z,100526.16
2018-09-12T08:53:03.208Z,100524.58
2018-09-12T08:55:30.871Z,100526.33
2018-09-12T08:57:58.635Z,100527.08
2018-09-12T09:00:31.855Z,100526.30
2018-09-12T09:02:59.740Z,100521.27
2018-09-12T09:05:27.578Z,100523.53
2018-09-12T09:07:55.244Z,100526.14
2018-09-12T09:10:23.178Z,100521.63
2018-09-12T09:12:51.011Z,100519.48
2018-09-12T09:15:18.725Z,100523.32
2018-09-12T09:17:46.483Z,100524.63
2018-09-12T09:20:14.279Z,100521.63
2018-09-12T09:22:41.971Z,100514.29
2018-09-12T09:25:09.666Z,100507.23
2018-09-12T09:27:37.379Z,100504.41
2018-09-12T09:30:06.074Z,100500.36
2018-09-12T09:32:33.918Z,100498.02
2018-09-12T09:35:01.814Z,100501.14
2018-09-12T09:37:29.478Z,100502.79
2018-09-12T09:39:57.654Z,100494.13
2018-09-12T09:42:25.431Z,100493.64
2018-09-12T09:44:53.221Z,100494.39
2018-09-12T09:47:21.767Z,100489.45
2018-09-12T09:49:56.628Z,100488.05
2018-09-12T09:52:25.879Z,100486.05
2018-09-12T09:54:54.037Z,100479.69
2018-09-12T09:57:22.342Z,100472.67
2018-09-12T09:59:50.331Z,100471.33
2018-09-12T10:03:22.235Z,100466.80
2018-09-12T10:05:56.333Z,100463.83
2018-09-12T10:08:28.664Z,100469.16
2018-09-12T10:10:56.834Z,100466.84
2018-09-12T10:13:24.525Z,100464.34
2018-09-12T10:15:52.247Z,100463.08
2018-09-12T10:18:19.967Z,100465.50
2018-09-12T10:20:47.735Z,100463.59
2018-09-12T10:23:15.535Z,100459.49
2018-09-12T10:25:43.386Z,100451.97
2018-09-12T10:28:11.130Z,100454.08
2018-09-12T10:30:38.894Z,100452.28
2018-09-12T10:33:06.594Z,100450.01
2018-09-12T10:35:34.271Z,100443.87
2018-09-12T10:38:02.099Z,100439.97
2018-09-12T10:40:29.840Z,100437.00
2018-09-12T10:42:57.534Z,100439.11
2018-09-12T10:45:25.418Z,100430.69
2018-09-12T10:47:53.110Z,100423.22
2018-09-12T10:50:20.859Z,100426.30
2018-09-12T10:52:48.552Z,100428.95
2018-09-12T10:55:16.245Z,100425.58
2018-09-12T10:57:43.947Z,100425.46
2018-09-12T11:00:11.705Z,100414.77
2018-09-12T11:02:39.532Z,100409.59
2018-09-12T11:05:07.250Z,100410.23
2018-09-12T11:07:34.967Z,100407.00
2018-09-12T11:10:02.741Z,100400.94
2018-09-12T11:12:30.583Z,100401.16
2018-09-12T11:14:58.314Z,100395.45
2018-09-12T11:17:26.203Z,100394.11
2018-09-12T11:19:54.254Z,100388.99
2018-09-12T11:22:22.163Z,100385.48
2018-09-12T11:24:50.035Z,100384.19
2018-09-12T11:27:17.715Z,100381.42
2018-09-12T11:29:45.443Z,100380.27
2018-09-12T11:32:13.290Z,100377.53
2018-09-12T11:34:40.979Z,100375.05
2018-09-12T11:37:08.894Z,100372.47
2018-09-12T11:39:36.587Z,100373.04
2018-09-12T11:42:04.437Z,100367.67
2018-09-12T11:44:32.107Z,100364.77
2018-09-12T11:46:59.831Z,100356.24
2018-09-12T11:49:27.827Z,100354.88
2018-09-12T11:51:55.539Z,100359.23
2018-09-12T11:54:23.234Z,100349.70
2018-09-12T11:56:50.983Z,100346.63
2018-09-12T11:59:18.732Z,100343.86
2018-09-12T12:01:46.511Z,100343.06
2018-09-12T12:04:14.203Z,100334.30
2018-09-12T12:06:41.914Z,100332.91
2018-09-12T12:09:10.347Z,100332.66
2018-09-12T12:11:38.416Z,100326.99
2018-09-12T12:14:06.355Z,100324.23
2018-09-12T12:16:34.526Z,100327.73
2018-09-12T12:19:02.316Z,100320.74
2018-09-12T12:21:30.478Z,100309.24
2018-09-12T12:23:58.374Z,100313.97
2018-09-12T12:26:26.194Z,100306.39
2018-09-12T12:28:54.018Z,100298.41
2018-09-12T12:31:21.706Z,100298.08
2018-09-12T12:33:49.801Z,100301.71
2018-09-12T12:36:17.495Z,100291.55
2018-09-12T12:38:45.343Z,100284.81
2018-09-12T12:41:13.214Z,100285.77
2018-09-12T12:43:40.911Z,100283.03
2018-09-12T12:46:08.958Z,100273.45
2018-09-12T12:48:36.904Z,100275.97
2018-09-12T12:51:05.115Z,100270.17
2018-09-12T12:53:32.979Z,100265.67
2018-09-12T12:56:00.671Z,100262.85
2018-09-12T12:58:28.701Z,100260.09
2018-09-12T13:00:56.407Z,100261.02
2018-09-12T13:03:24.096Z,100255.34
2018-09-12T13:05:51.892Z,100250.45
2018-09-12T13:08:19.639Z,100255.04
2018-09-12T13:10:47.395Z,100244.83
2018-09-12T13:13:15.191Z,100237.81
2018-09-12T13:15:42.942Z,100231.24
2018-09-12T13:18:10.660Z,100234.81
2018-09-12T13:20:50.939Z,100224.97
2018-09-12T13:23:18.707Z,100222.59
2018-09-12T13:25:46.500Z,100218.39
2018-09-12T13:28:14.374Z,100214.56
2018-09-12T13:30:42.338Z,100214.94
2018-09-12T13:33:10.018Z,100209.81
2018-09-12T13:35:37.728Z,100218.38
2018-09-12T13:38:05.495Z,100207.75
2018-09-12T13:40:33.323Z,100203.08
2018-09-12T13:43:01.229Z,100202.53
2018-09-12T13:45:28.995Z,100200.87
2018-09-12T13:47:56.707Z,100195.17
2018-09-12T13:50:24.583Z,100196.47
2018-09-12T13:52:52.295Z,100191.00
2018-09-12T13:55:20.023Z,100185.20
2018-09-12T13:57:47.798Z,100191.39
2018-09-12T14:00:15.528Z,100181.45
2018-09-12T14:02:43.258Z,100181.73
2018-09-12T14:05:11.241Z,100179.86
2018-09-12T14:07:38.916Z,100180.09
2018-09-12T14:10:06.753Z,100176.59
2018-09-12T14:12:34.736Z,100176.39
2018-09-12T14:15:02.695Z,100168.41
2018-09-12T14:17:30.576Z,100168.52
2018-09-12T14:19:58.472Z,100167.94
2018-09-12T14:22:26.202Z,100162.61
2018-09-12T14:24:53.980Z,100155.75
2018-09-12T14:27:21.648Z,100153.88
2018-09-12T14:29:49.314Z,100152.74
2018-09-12T14:32:17.119Z,100156.64
2018-09-12T14:34:45.719Z,100159.30
2018-09-12T14:37:13.522Z,100155.25
2018-09-12T14:39:41.283Z,100157.64
2018-09-12T14:42:09.120Z,100152.63
2018-09-12T14:44:36.755Z,100146.92
2018-09-12T14:47:04.892Z,100144.42
2018-09-12T14:49:32.615Z,100136.29
2018-09-12T14:52:00.351Z,100134.93
2018-09-12T14:54:28.118Z,100131.70
2018-09-12T14:56:56.012Z,100133.58
2018-09-12T14:59:23.750Z,100134.28
2018-09-12T15:01:51.514Z,100126.45
2018-09-12T15:04:19.205Z,100130.21
2018-09-12T15:06:46.975Z,100116.30
2018-09-12T15:09:14.868Z,100118.20
2018-09-12T15:11:43.439Z,100120.11
2018-09-12T15:14:11.257Z,100117.25
2018-09-12T15:16:38.931Z,100123.08
2018-09-12T15:19:07.350Z,100117.56
2018-09-12T15:21:37.191Z,100120.66
2018-09-12T15:24:05.251Z,100115.09
2018-09-12T15:26:32.955Z,100113.97
2018-09-12T15:29:00.737Z,100113.02
2018-09-12T15:31:28.398Z,100108.36
2018-09-12T15:33:56.246Z,100102.02
2018-09-12T15:36:23.986Z,100104.30
2018-09-12T15:38:52.866Z,100093.45
2018-09-12T15:41:20.861Z,100095.02
2018-09-12T15:43:48.486Z,100095.09
2018-09-12T15:46:16.474Z,100090.67
2018-09-12T15:48:44.246Z,100085.86
2018-09-12T15:51:12.310Z,100077.42
2018-09-12T15:53:40.080Z,100081.00
2018-09-12T15:56:08.047Z,100077.87
2018-09-12T15:58:35.913Z,100069.07
2018-09-12T16:01:03.715Z,100067.95
2018-09-12T16:03:31.436Z,100073.86
2018-09-12T16:05:59.269Z,100075.73
2018-09-12T16:08:26.974Z,100065.83
2018-09-12T16:10:54.947Z,100075.03
2018-09-12T16:13:23.664Z,100068.09
2018-09-12T16:15:51.387Z,100062.96
2018-09-12T16:18:19.111Z,100063.48
2018-09-12T16:20:47.122Z,100058.17
2018-09-12T16:23:14.853Z,100051.09
2018-09-12T16:25:43.681Z,100052.75
2018-09-12T16:28:11.451Z,100050.87
2018-09-12T16:30:39.280Z,100044.76
2018-09-12T16:33:07.101Z,100047.01
2018-09-12T16:35:34.746Z,100042.80
2018-09-12T16:38:02.524Z,100041.61
2018-09-12T16:40:30.293Z,100040.37
2018-09-12T16:42:58.030Z,100034.02
2018-09-12T16:45:26.058Z,100030.48
2018-09-12T16:47:53.835Z,100036.14
2018-09-12T16:50:21.512Z,100034.28
2018-09-12T16:52:49.294Z,100034.50
2018-09-12T16:55:17.020Z,100028.50
2018-09-12T16:57:44.709Z,100032.52
2018-09-12T17:00:12.591Z,100035.20
2018-09-12T17:02:40.471Z,100029.77
2018-09-12T17:05:08.236Z,100031.91
2018-09-12T17:07:35.907Z,100029.66
2018-09-12T17:10:03.781Z,100030.39
2018-09-12T17:12:31.526Z,100026.05
2018-09-12T17:14:59.227Z,100029.66
2018-09-12T17:17:27.007Z,100027.66
2018-09-12T17:19:54.689Z,100028.91
2018-09-12T17:22:22.593Z,100037.13
2018-09-12T17:24:50.471Z,100036.20
2018-09-12T17:27:18.186Z,100037.13
2018-09-12T17:29:45.944Z,100036.14
2018-09-12T17:32:13.680Z,100031.38
2018-09-12T17:34:41.687Z,100025.77
2018-09-12T17:37:09.605Z,100025.58
2018-09-12T17:39:37.307Z,100033.75
2018-09-12T17:42:06.220Z,100033.27
2018-09-12T17:44:34.079Z,100033.30
2018-09-12T17:47:01.939Z,100038.19
2018-09-12T17:49:29.702Z,100042.25
2018-09-12T17:51:57.443Z,100038.19
2018-09-12T17:54:25.146Z,100036.55
2018-09-12T17:56:52.912Z,100032.26
2018-09-12T17:59:21.064Z,100042.77
2018-09-12T18:01:48.740Z,100047.08
2018-09-12T18:07:26.699Z,100049.63
2018-09-12T18:09:54.483Z,100064.41
2018-09-12T18:12:22.199Z,100067.70
2018-09-12T18:14:50.268Z,100069.64
2018-09-12T18:17:18.052Z,100065.36
2018-09-12T18:19:45.719Z,100071.00
2018-09-12T18:22:13.438Z,100077.72
2018-09-12T18:24:41.209Z,100083.10
2018-09-12T18:27:09.087Z,100079.88
2018-09-12T18:29:36.845Z,100077.20
2018-09-12T18:32:04.688Z,100078.78
2018-09-12T18:34:32.571Z,100082.56
2018-09-12T18:37:00.742Z,100082.55
2018-09-12T18:39:28.541Z,100088.23
2018-09-12T18:41:56.332Z,100097.34
2018-09-12T18:44:24.023Z,100104.61
2018-09-12T18:46:52.061Z,100122.62
2018-09-12T18:49:19.875Z,100134.20
2018-09-12T18:51:47.779Z,100137.43
2018-09-12T18:54:15.748Z,100135.53
2018-09-12T18:56:43.547Z,100132.54
2018-09-12T18:59:11.331Z,100140.02
2018-09-12T19:01:39.143Z,100137.05
2018-09-12T19:04:07.356Z,100141.04
2018-09-12T19:06:35.156Z,100143.17
2018-09-12T19:09:04.998Z,100150.06
2018-09-12T19:11:32.775Z,100148.39
2018-09-12T19:14:00.777Z,100141.93
2018-09-12T19:16:28.602Z,100136.77
2018-09-12T19:18:56.447Z,100138.08
2018-09-12T19:21:24.177Z,100137.27
2018-09-12T19:23:52.035Z,100137.77
2018-09-12T19:26:19.763Z,100134.17
2018-09-12T19:28:47.923Z,100140.29
2018-09-12T19:31:15.700Z,100147.66
2018-09-12T19:33:43.524Z,100146.09
2018-09-12T19:36:11.313Z,100154.35
2018-09-12T19:38:39.115Z,100154.61
2018-09-12T19:41:07.206Z,100156.44
2018-09-12T19:43:34.974Z,100156.38
2018-09-12T19:46:02.690Z,100157.34
2018-09-12T19:48:30.415Z,100158.06
2018-09-12T19:50:58.195Z,100160.47
2018-09-12T19:53:26.218Z,100166.91
2018-09-12T19:55:54.043Z,100170.83
2018-09-12T19:58:21.735Z,100170.64
2018-09-12T20:00:49.703Z,100164.41
2018-09-12T20:03:17.517Z,100165.87
2018-09-12T20:05:45.201Z,100167.30
2018-09-12T20:08:12.907Z,100171.69
2018-09-12T20:10:40.627Z,100167.81
2018-09-12T20:13:08.396Z,100159.11
2018-09-12T20:15:36.071Z,100158.64
2018-09-12T20:18:03.811Z,100156.78
2018-09-12T20:20:31.551Z,100155.52
2018-09-12T20:23:02.735Z,100159.44
2018-09-12T20:25:30.503Z,100158.80
2018-09-12T20:27:58.222Z,100160.11
2018-09-12T20:30:25.999Z,100160.64
2018-09-12T20:32:54.041Z,100157.97
2018-09-12T20:35:21.703Z,100167.81
2018-09-12T20:37:49.438Z,100170.11
2018-09-12T20:40:17.122Z,100167.35
2018-09-12T20:42:44.836Z,100169.37
2018-09-12T20:45:12.554Z,100174.93
2018-09-12T20:47:40.219Z,100174.65
2018-09-12T20:50:08.380Z,100172.70
2018-09-12T20:52:36.048Z,100168.34
2018-09-12T20:55:03.795Z,100171.76
2018-09-12T20:57:31.639Z,100168.63
2018-09-12T20:59:59.323Z,100170.95
2018-09-12T21:02:27.001Z,100180.75
2018-09-12T21:04:54.713Z,100175.17
2018-09-12T21:07:22.445Z,100179.91
2018-09-12T21:09:50.219Z,100179.53
2018-09-12T21:12:17.979Z,100177.55
2018-09-12T21:14:45.647Z,100180.64
2018-09-12T21:17:13.431Z,100183.77
2018-09-12T21:19:41.145Z,100181.80
2018-09-12T21:22:08.823Z,100182.92
2018-09-12T21:24:40.052Z,100181.48
2018-09-12T21:27:07.835Z,100190.78
2018-09-12T21:29:35.547Z,100190.33
2018-09-12T21:32:03.259Z,100196.75
2018-09-12T21:34:30.943Z,100198.22
2018-09-12T21:36:58.635Z,100198.73
2018-09-12T21:39:26.330Z,100196.53
2018-09-12T21:41:54.000Z,100200.66
2018-09-12T21:44:21.683Z,100201.95
2018-09-12T21:46:49.527Z,100199.45
2018-09-12T21:49:17.263Z,100207.89
2018-09-12T21:51:44.946Z,100211.14
2018-09-12T21:54:12.661Z,100214.33
2018-09-12T21:56:40.358Z,100212.07
2018-09-12T21:59:08.069Z,100204.27
2018-09-12T22:01:35.805Z,100204.39
2018-09-12T22:04:03.502Z,100206.34
2018-09-12T22:06:31.222Z,100205.01
2018-09-12T22:08:58.926Z,100205.01
2018-09-12T22:11:26.614Z,100205.98
2018-09-12T22:13:54.348Z,100198.75
2018-09-12T22:16:22.387Z,100200.81
2018-09-12T22:18:50.225Z,100192.25
2018-09-12T22:21:17.979Z,100193.78
2018-09-12T22:23:45.660Z,100192.20
2018-09-12T22:26:13.348Z,100192.48
2018-09-12T22:28:41.067Z,100194.45
2018-09-12T22:31:08.827Z,100201.16
2018-09-12T22:33:36.495Z,100197.51
2018-09-12T22:36:04.258Z,100208.44
2018-09-12T22:38:31.971Z,100208.39
2018-09-12T22:40:59.660Z,100201.16
2018-09-12T22:43:27.379Z,100201.33
2018-09-12T22:45:55.064Z,100200.23
2018-09-12T22:48:26.765Z,100195.69
2018-09-12T22:50:54.480Z,100202.34
2018-09-12T22:53:22.228Z,100198.44
2018-09-12T22:55:49.935Z,100197.91
2018-09-12T22:58:17.651Z,100200.96
2018-09-12T23:00:45.416Z,100190.94
2018-09-12T23:03:13.246Z,100201.45
2018-09-12T23:05:40.922Z,100195.38
2018-09-12T23:08:08.638Z,100192.42
2018-09-12T23:10:36.377Z,100187.09
2018-09-12T23:13:04.302Z,100191.48
2018-09-12T23:15:31.983Z,100195.65
2018-09-12T23:17:59.889Z,100196.37
2018-09-12T23:20:27.591Z,100196.30
2018-09-12T23:22:55.276Z,100193.63
2018-09-12T23:25:22.987Z,100200.05
2018-09-12T23:27:50.660Z,100198.00
2018-09-12T23:30:18.334Z,100199.66
2018-09-12T23:32:46.646Z,100205.45
2018-09-12T23:35:14.375Z,100206.87
2018-09-12T23:37:42.062Z,100203.97
2018-09-12T23:40:09.781Z,100205.88
2018-09-12T23:42:37.452Z,100192.53
2018-09-12T23:45:05.280Z,100191.95
2018-09-12T23:47:32.952Z,100192.62
2018-09-12T23:50:00.993Z,100186.11
2018-09-12T23:52:28.696Z,100191.20
2018-09-12T23:54:56.445Z,100189.67
2018-09-12T23:57:24.225Z,100185.59
2018-09-12T23:59:51.891Z,100181.49
